< < Back
Terminal Aerodrome Forecast


Current Version              Previous Versions:   1  2  3  4  5  6  7  8  9  

Terminal Aerodrome Forecast

182
FTUS44 KOHX 030700 AAA
TAFCSV
TAF AMD
KCSV 030710Z 0307/0406 VRB03KT P6SM OVC050
     FM030900 VRB03KT 4SM BR VCSH OVC006
     FM031200 18007KT 2SM -SHRA BR OVC003
     FM031800 21013G20KT 2SM -SHRA BR OVC003=



Latest METAR

189
SAUS70 KWBC 031800 RRE
MTRCSV
METAR KCSV 031753Z AUTO 20011G16KT 9SM OVC004 12/10 A3010 RMK AO2 SLP190
T01170100 10117 20072 56019


USA.gov is the U.S. government's official web portal to all federal, state and local government web resources and services.